Time;durP1;ratioP1;P1;durP2;ratioP2;P2;SDS_P1;SDS_P2;PMS_P1;PMS_P2;Temp;Humidity;BMP_temperature;BMP_pressure;BME280_temperature;BME280_humidity;BME280_pressure;Samples;Min_cycle;Max_cycle;Signal;HPM_P1;HPM_P2
2023/06/20 00:00:49;;;;;;;;;;;;;;;;;;5016784;28;19936;-90
2023/06/20 00:03:16;;;;;;;;;;;;;;;;;;5039951;28;19932;-91
2023/06/20 00:05:44;;;;;;;;;;;;;;;;;;5038868;28;19933;-91
2023/06/20 00:08:16;;;;;;;;;;;;;;;;;;5023677;28;19940;-92
2023/06/20 00:10:44;;;;;;;;;;;;;;;;;;5030979;28;19937;-90
2023/06/20 00:13:11;;;;;;;;;;;;;;;;;;5024029;28;19940;-90
2023/06/20 00:15:41;;;;;;;;;;;;;;;;;;5037163;28;19940;-91
2023/06/20 00:18:08;;;;;;;;;;;;;;;;;;5041589;28;20298;-91
2023/06/20 00:20:36;;;;;;;;;;;;;;;;;;5026394;28;19926;-90
2023/06/20 00:23:04;;;;;;;;;;;;;;;;;;5026634;28;19940;-93
2023/06/20 00:25:31;;;;;;;;;;;;;;;;;;5023833;28;19933;-91
2023/06/20 00:27:59;;;;;;;;;;;;;;;;;;5023844;28;19929;-90
2023/06/20 00:30:32;;;;;;;;;;;;;;;;;;5024410;28;19952;-91
2023/06/20 00:32:59;;;;;;;;;;;;;;;;;;5023073;28;19932;-90
2023/06/20 00:35:27;;;;;;;;;;;;;;;;;;5022600;28;20377;-91
2023/06/20 00:37:55;;;;;;;;;;;;;;;;;;5023078;28;19948;-90
2023/06/20 00:40:22;;;;;;;;;;;;;;;;;;5039168;28;20320;-91
2023/06/20 00:42:51;;;;;;;;;;;;;;;;;;5026835;28;19940;-91
2023/06/20 00:45:19;;;;;;;;;;;;;;;;;;5022656;28;19925;-90
2023/06/20 00:47:46;;;;;;;;;;;;;;;;;;5021680;28;20598;-90
2023/06/20 00:50:14;;;;;;;;;;;;;;;;;;5025115;28;19927;-91
2023/06/20 00:52:43;;;;;;;;;;;;;;;;;;5025891;28;19925;-91
2023/06/20 00:55:10;;;;;;;;;;;;;;;;;;5026431;28;19925;-90
2023/06/20 00:57:38;;;;;;;;;;;;;;;;;;5023394;28;19929;-92
2023/06/20 01:00:12;;;;;;;;;;;;;;;;;;5021943;28;19930;-91
2023/06/20 01:02:40;;;;;;;;;;;;;;;;;;5033607;28;19944;-90
2023/06/20 01:05:07;;;;;;;;;;;;;;;;;;5022830;28;20309;-91
2023/06/20 01:07:36;;;;;;;;;;;;;;;;;;5021891;28;19936;-89
2023/06/20 01:10:04;;;;;;;;;;;;;;;;;;5027380;28;20378;-89
2023/06/20 01:12:32;;;;;;;;;;;;;;;;;;5022960;28;19936;-90
2023/06/20 01:14:59;;;;;;;;;;;;;;;;;;5024030;28;19932;-91
2023/06/20 01:17:29;;;;;;;;;;;;;;;;;;5041957;28;19926;-90
2023/06/20 01:20:12;;;;;;;;;;;;;;;;;;5022054;28;19941;-90
2023/06/20 01:22:39;;;;;;;;;;;;;;;;;;5037276;28;19933;-90
2023/06/20 01:25:07;;;;;;;;;;;;;;;;;;5020717;28;19933;-91
2023/06/20 01:27:34;;;;;;;;;;;;;;;;;;5021761;28;19932;-92
2023/06/20 01:30:02;;;;;;;;;;;;;;;;;;5038460;28;19929;-92
2023/06/20 01:32:30;;;;;;;;;;;;;;;;;;5037194;28;20472;-91
2023/06/20 01:34:57;;;;;;;;;;;;;;;;;;5018746;28;19932;-83
2023/06/20 01:37:25;;;;;;;;;;;;;;;;;;5026997;28;19932;-85
2023/06/20 01:39:52;;;;;;;;;;;;;;;;;;5016581;28;19940;-84
2023/06/20 01:42:20;;;;;;;;;;;;;;;;;;5018683;28;19929;-84
2023/06/20 01:44:50;;;;;;;;;;;;;;;;;;5018028;28;19925;-84
2023/06/20 01:47:18;;;;;;;;;;;;;;;;;;5025671;28;19929;-84
2023/06/20 01:49:46;;;;;;;;;;;;;;;;;;5013105;28;19936;-85
2023/06/20 01:52:14;;;;;;;;;;;;;;;;;;5019221;28;19932;-86
2023/06/20 01:54:46;;;;;;;;;;;;;;;;;;5018542;28;19933;-84
2023/06/20 01:57:14;;;;;;;;;;;;;;;;;;5017820;28;19925;-85
2023/06/20 01:59:41;;;;;;;;;;;;;;;;;;5017739;28;20390;-85
2023/06/20 02:02:09;;;;;;;;;;;;;;;;;;5014369;28;19929;-85
2023/06/20 02:04:36;;;;;;;;;;;;;;;;;;5019967;28;19926;-84
2023/06/20 02:07:06;;;;;;;;;;;;;;;;;;5018474;28;19929;-85
2023/06/20 02:09:39;;;;;;;;;;;;;;;;;;5017037;28;19936;-84
2023/06/20 02:12:06;;;;;;;;;;;;;;;;;;5018797;28;19926;-84
2023/06/20 02:14:35;;;;;;;;;;;;;;;;;;5016069;28;19925;-86
2023/06/20 02:17:08;;;;;;;;;;;;;;;;;;5020457;28;20804;-84
2023/06/20 02:19:36;;;;;;;;;;;;;;;;;;5016755;28;19936;-85
2023/06/20 02:22:03;;;;;;;;;;;;;;;;;;5019914;28;19933;-84
2023/06/20 02:24:31;;;;;;;;;;;;;;;;;;5016930;28;19933;-84
2023/06/20 02:26:58;;;;;;;;;;;;;;;;;;5035239;28;19937;-84
2023/06/20 02:29:31;;;;;;;;;;;;;;;;;;5021738;28;19930;-87
2023/06/20 02:31:58;;;;;;;;;;;;;;;;;;5020086;28;19929;-87
2023/06/20 02:34:26;;;;;;;;;;;;;;;;;;5021592;28;20316;-85
2023/06/20 02:36:55;;;;;;;;;;;;;;;;;;5018072;28;19941;-86
2023/06/20 02:39:23;;;;;;;;;;;;;;;;;;5018301;28;19933;-88
2023/06/20 02:41:50;;;;;;;;;;;;;;;;;;5018346;28;19971;-84
2023/06/20 02:44:24;;;;;;;;;;;;;;;;;;5038605;28;19929;-83
2023/06/20 02:46:53;;;;;;;;;;;;;;;;;;5036598;28;19940;-85
2023/06/20 02:49:20;;;;;;;;;;;;;;;;;;5038950;28;20297;-84
2023/06/20 02:51:48;;;;;;;;;;;;;;;;;;5032731;28;19929;-85
2023/06/20 02:54:15;;;;;;;;;;;;;;;;;;5022744;28;19925;-85
2023/06/20 02:56:48;;;;;;;;;;;;;;;;;;5024418;28;20751;-84
2023/06/20 02:59:15;;;;;;;;;;;;;;;;;;5024463;28;19936;-84
2023/06/20 03:01:44;;;;;;;;;;;;;;;;;;5036470;28;19940;-87
2023/06/20 03:04:12;;;;;;;;;;;;;;;;;;5024668;28;21816;-88
2023/06/20 03:06:45;;;;;;;;;;;;;;;;;;5020911;28;19929;-84
2023/06/20 03:09:12;;;;;;;;;;;;;;;;;;5021093;28;19926;-87
2023/06/20 03:11:45;;;;;;;;;;;;;;;;;;5017869;28;19936;-84
2023/06/20 03:14:18;;;;;;;;;;;;;;;;;;5017456;28;19925;-85
2023/06/20 03:16:46;;;;;;;;;;;;;;;;;;5038572;28;19936;-85
2023/06/20 03:19:14;;;;;;;;;;;;;;;;;;5017567;28;20278;-85
2023/06/20 03:21:47;;;;;;;;;;;;;;;;;;5022449;28;20740;-84
2023/06/20 03:24:16;;;;;;;;;;;;;;;;;;5015579;28;19925;-85
2023/06/20 03:26:43;;;;;;;;;;;;;;;;;;5015395;28;20000;-86
2023/06/20 03:29:11;;;;;;;;;;;;;;;;;;5034256;28;19936;-84
2023/06/20 03:31:39;;;;;;;;;;;;;;;;;;5017580;28;19925;-84
2023/06/20 03:34:07;;;;;;;;;;;;;;;;;;5036294;28;19933;-85
2023/06/20 03:36:34;;;;;;;;;;;;;;;;;;5023607;28;19926;-86
2023/06/20 03:39:02;;;;;;;;;;;;;;;;;;5038771;28;19929;-83
2023/06/20 03:41:29;;;;;;;;;;;;;;;;;;5026017;28;20370;-83
2023/06/20 03:44:01;;;;;;;;;;;;;;;;;;5020519;28;20571;-85
2023/06/20 03:46:28;;;;;;;;;;;;;;;;;;5023838;28;19936;-86
2023/06/20 03:48:56;;;;;;;;;;;;;;;;;;5023829;28;19940;-86
2023/06/20 03:51:23;;;;;;;;;;;;;;;;;;5028379;28;19956;-85
2023/06/20 03:53:51;;;;;;;;;;;;;;;;;;5036427;28;20759;-85
2023/06/20 03:56:19;;;;;;;;;;;;;;;;;;5023312;28;19929;-84
2023/06/20 03:58:46;;;;;;;;;;;;;;;;;;5028574;28;20401;-84
2023/06/20 04:01:14;;;;;;;;;;;;;;;;;;5018998;28;19940;-84
2023/06/20 04:03:42;;;;;;;;;;;;;;;;;;5024188;28;19929;-84
2023/06/20 04:06:15;;;;;;;;;;;;;;;;;;5022381;28;19933;-85
2023/06/20 04:08:45;;;;;;;;;;;;;;;;;;5034251;28;20393;-85
2023/06/20 04:11:12;;;;;;;;;;;;;;;;;;5021502;28;19933;-85
2023/06/20 04:13:40;;;;;;;;;;;;;;;;;;5019384;28;19929;-85
2023/06/20 04:16:07;;;;;;;;;;;;;;;;;;5033748;28;20409;-85
2023/06/20 04:18:36;;;;;;;;;;;;;;;;;;5015852;28;19933;-84
2023/06/20 04:21:04;;;;;;;;;;;;;;;;;;5032523;28;19932;-86
2023/06/20 04:23:31;;;;;;;;;;;;;;;;;;5023042;28;19929;-85
2023/06/20 04:25:59;;;;;;;;;;;;;;;;;;5038413;28;19929;-84
2023/06/20 04:28:27;;;;;;;;;;;;;;;;;;5021455;28;19945;-85
2023/06/20 04:30:59;;;;;;;;;;;;;;;;;;5019719;28;19936;-86
2023/06/20 04:33:27;;;;;;;;;;;;;;;;;;5018864;28;19929;-86
2023/06/20 04:35:57;;;;;;;;;;;;;;;;;;5025134;28;19940;-85
2023/06/20 04:38:28;;;;;;;;;;;;;;;;;;5018139;28;19944;-84
2023/06/20 04:40:57;;;;;;;;;;;;;;;;;;5025968;28;19925;-84
2023/06/20 04:43:25;;;;;;;;;;;;;;;;;;5022264;28;19944;-85
2023/06/20 04:45:56;;;;;;;;;;;;;;;;;;5024254;28;19940;-87
2023/06/20 04:48:24;;;;;;;;;;;;;;;;;;5027997;28;19935;-85
2023/06/20 04:50:51;;;;;;;;;;;;;;;;;;5023970;28;19937;-84
2023/06/20 04:53:19;;;;;;;;;;;;;;;;;;5021805;28;19948;-85
2023/06/20 04:55:48;;;;;;;;;;;;;;;;;;5025768;28;20289;-86
2023/06/20 04:58:16;;;;;;;;;;;;;;;;;;5023784;28;19925;-87
2023/06/20 05:00:43;;;;;;;;;;;;;;;;;;5022120;28;19929;-86
2023/06/20 05:03:12;;;;;;;;;;;;;;;;;;5019621;28;19929;-85
2023/06/20 05:05:40;;;;;;;;;;;;;;;;;;5019501;28;19959;-85
2023/06/20 05:08:09;;;;;;;;;;;;;;;;;;5023389;28;19933;-85
2023/06/20 05:10:37;;;;;;;;;;;;;;;;;;5018549;28;19932;-87
2023/06/20 05:13:04;;;;;;;;;;;;;;;;;;5022261;28;19940;-88
2023/06/20 05:15:32;;;;;;;;;;;;;;;;;;5022970;28;20670;-86
2023/06/20 05:17:59;;;;;;;;;;;;;;;;;;5038624;28;19925;-89
2023/06/20 05:20:27;;;;;;;;;;;;;;;;;;5037314;28;19948;-88
2023/06/20 05:22:54;;;;;;;;;;;;;;;;;;5019612;28;19948;-89
2023/06/20 05:25:22;;;;;;;;;;;;;;;;;;5019539;28;19956;-89
2023/06/20 05:27:50;;;;;;;;;;;;;;;;;;5026017;28;19925;-87
2023/06/20 05:30:17;;;;;;;;;;;;;;;;;;5026223;28;20893;-86
2023/06/20 05:32:45;;;;;;;;;;;;;;;;;;5021763;28;19940;-90
2023/06/20 05:35:12;;;;;;;;;;;;;;;;;;5025150;28;19929;-87
2023/06/20 05:37:40;;;;;;;;;;;;;;;;;;5037267;28;20305;-88
2023/06/20 05:40:08;;;;;;;;;;;;;;;;;;5020591;28;19929;-83
2023/06/20 05:42:35;;;;;;;;;;;;;;;;;;5024322;28;19929;-87
2023/06/20 05:45:03;;;;;;;;;;;;;;;;;;5020222;28;19962;-82
2023/06/20 05:47:30;;;;;;;;;;;;;;;;;;5022928;28;19930;-88
2023/06/20 05:49:59;;;;;;;;;;;;;;;;;;5023205;28;19928;-90
2023/06/20 05:52:26;;;;;;;;;;;;;;;;;;5026319;28;19956;-89
2023/06/20 05:54:54;;;;;;;;;;;;;;;;;;5031121;28;20413;-89
2023/06/20 05:57:22;;;;;;;;;;;;;;;;;;5022451;28;19925;-89
2023/06/20 05:59:50;;;;;;;;;;;;;;;;;;5034864;28;19925;-89
2023/06/20 06:02:17;;;;;;;;;;;;;;;;;;5018372;28;19932;-89
2023/06/20 06:04:45;;;;;;;;;;;;;;;;;;5021807;28;19936;-91
2023/06/20 06:07:13;;;;;;;;;;;;;;;;;;5018573;28;19929;-91
2023/06/20 06:09:40;;;;;;;;;;;;;;;;;;5043513;28;19929;-83
2023/06/20 06:12:08;;;;;;;;;;;;;;;;;;5027990;28;19930;-90
2023/06/20 06:14:36;;;;;;;;;;;;;;;;;;5036458;28;20404;-89
2023/06/20 06:17:03;;;;;;;;;;;;;;;;;;5026950;28;19936;-90
2023/06/20 06:19:31;;;;;;;;;;;;;;;;;;5039594;28;19932;-89
2023/06/20 06:21:58;;;;;;;;;;;;;;;;;;5040701;28;19925;-88
2023/06/20 06:24:26;;;;;;;;;;;;;;;;;;5021566;28;20372;-86
2023/06/20 06:26:54;;;;;;;;;;;;;;;;;;5041207;28;19929;-88
2023/06/20 06:29:21;;;;;;;;;;;;;;;;;;5019320;28;19940;-88
2023/06/20 06:31:49;;;;;;;;;;;;;;;;;;5013261;28;19933;-88
2023/06/20 06:34:17;;;;;;;;;;;;;;;;;;5007666;28;20385;-88
2023/06/20 06:36:45;;;;;;;;;;;;;;;;;;5012700;28;19964;-89
2023/06/20 06:39:12;;;;;;;;;;;;;;;;;;5009155;28;19925;-89
2023/06/20 06:41:40;;;;;;;;;;;;;;;;;;5013525;28;19933;-90
2023/06/20 06:44:07;;;;;;;;;;;;;;;;;;5016985;28;20573;-91
2023/06/20 06:46:35;;;;;;;;;;;;;;;;;;5010202;28;19933;-89
2023/06/20 06:49:03;;;;;;;;;;;;;;;;;;5008047;28;19932;-89
2023/06/20 06:51:30;;;;;;;;;;;;;;;;;;5006929;28;20300;-89
2023/06/20 06:53:58;;;;;;;;;;;;;;;;;;5002582;28;19933;-90
2023/06/20 06:56:26;;;;;;;;;;;;;;;;;;5010317;28;20513;-83
2023/06/20 06:58:57;;;;;;;;;;;;;;;;;;5010105;28;20285;-87
2023/06/20 07:01:26;;;;;;;;;;;;;;;;;;5003948;28;19933;-87
2023/06/20 07:03:54;;;;;;;;;;;;;;;;;;5007457;28;19933;-87
2023/06/20 07:06:21;;;;;;;;;;;;;;;;;;5015341;28;20294;-90
2023/06/20 07:08:49;;;;;;;;;;;;;;;;;;5006109;28;19940;-88
2023/06/20 07:11:17;;;;;;;;;;;;;;;;;;5017388;28;19929;-88
2023/06/20 07:13:51;;;;;;;;;;;;;;;;;;5003789;28;19933;-88
2023/06/20 07:16:18;;;;;;;;;;;;;;;;;;5006281;28;20085;-88
2023/06/20 07:18:46;;;;;;;;;;;;;;;;;;5002719;28;19944;-89
2023/06/20 07:21:13;;;;;;;;;;;;;;;;;;5004032;28;19944;-87
2023/06/20 07:23:41;;;;;;;;;;;;;;;;;;5011298;28;19940;-88
2023/06/20 07:26:08;;;;;;;;;;;;;;;;;;5022493;28;19939;-89
2023/06/20 07:28:36;;;;;;;;;;;;;;;;;;4996790;28;19930;-89
2023/06/20 07:31:04;;;;;;;;;;;;;;;;;;5024665;28;19929;-90
2023/06/20 07:33:31;;;;;;;;;;;;;;;;;;4998730;28;19941;-88
2023/06/20 07:36:00;;;;;;;;;;;;;;;;;;4992184;28;20543;-87
2023/06/20 07:38:27;;;;;;;;;;;;;;;;;;4995151;28;19933;-89
2023/06/20 07:40:55;;;;;;;;;;;;;;;;;;4991562;28;20719;-91
2023/06/20 07:43:24;;;;;;;;;;;;;;;;;;5016781;28;20526;-91
2023/06/20 07:45:55;;;;;;;;;;;;;;;;;;4998070;28;19933;-90
2023/06/20 07:48:24;;;;;;;;;;;;;;;;;;4997236;28;19932;-91
2023/06/20 07:50:51;;;;;;;;;;;;;;;;;;5006224;28;21419;-91
2023/06/20 07:53:19;;;;;;;;;;;;;;;;;;5023806;28;19933;-90
2023/06/20 07:55:46;;;;;;;;;;;;;;;;;;4999408;28;19933;-89
2023/06/20 07:58:14;;;;;;;;;;;;;;;;;;4995406;28;19957;-87
2023/06/20 08:00:43;;;;;;;;;;;;;;;;;;4999234;28;20305;-89
2023/06/20 08:03:11;;;;;;;;;;;;;;;;;;5018877;28;19933;-92
2023/06/20 08:05:38;;;;;;;;;;;;;;;;;;4997795;28;19933;-89
2023/06/20 08:08:06;;;;;;;;;;;;;;;;;;5002636;28;19936;-91
2023/06/20 08:10:33;;;;;;;;;;;;;;;;;;5021684;28;19932;-90
2023/06/20 08:13:01;;;;;;;;;;;;;;;;;;5002018;28;19934;-93
2023/06/20 08:15:29;;;;;;;;;;;;;;;;;;5000889;28;19974;-89
2023/06/20 08:17:56;;;;;;;;;;;;;;;;;;5000755;28;19933;-89
2023/06/20 08:20:24;;;;;;;;;;;;;;;;;;4994316;28;20572;-90
2023/06/20 08:22:52;;;;;;;;;;;;;;;;;;4994171;28;19940;-90
2023/06/20 08:25:19;;;;;;;;;;;;;;;;;;5001151;28;19934;-90
2023/06/20 08:27:47;;;;;;;;;;;;;;;;;;4972187;28;19941;-90
2023/06/20 08:30:15;;;;;;;;;;;;;;;;;;5023939;28;19940;-90
2023/06/20 08:32:44;;;;;;;;;;;;;;;;;;4995521;28;19956;-88
2023/06/20 08:35:11;;;;;;;;;;;;;;;;;;4997212;28;19934;-89
2023/06/20 08:37:41;;;;;;;;;;;;;;;;;;4997387;28;19933;-87
2023/06/20 08:40:09;;;;;;;;;;;;;;;;;;5001016;28;19971;-90
2023/06/20 08:42:37;;;;;;;;;;;;;;;;;;4999905;28;19933;-90
2023/06/20 08:45:04;;;;;;;;;;;;;;;;;;5016933;28;19959;-91
2023/06/20 08:47:32;;;;;;;;;;;;;;;;;;5025759;28;19933;-89
2023/06/20 08:50:00;;;;;;;;;;;;;;;;;;5022720;28;20788;-91
2023/06/20 08:52:28;;;;;;;;;;;;;;;;;;5001746;28;19933;-89
2023/06/20 08:54:56;;;;;;;;;;;;;;;;;;4994339;28;19934;-85
2023/06/20 08:57:23;;;;;;;;;;;;;;;;;;4996599;28;19944;-90
2023/06/20 08:59:53;;;;;;;;;;;;;;;;;;5018576;28;19932;-89
2023/06/20 09:02:21;;;;;;;;;;;;;;;;;;5000646;28;20039;-88
2023/06/20 09:04:49;;;;;;;;;;;;;;;;;;4996674;28;19940;-90
2023/06/20 09:07:17;;;;;;;;;;;;;;;;;;5000534;28;19932;-89
2023/06/20 09:09:45;;;;;;;;;;;;;;;;;;4996420;28;19936;-86
2023/06/20 09:12:12;;;;;;;;;;;;;;;;;;5015769;28;19980;-90
2023/06/20 09:14:40;;;;;;;;;;;;;;;;;;4995000;28;19933;-91
2023/06/20 09:17:07;;;;;;;;;;;;;;;;;;4998572;28;19933;-86
2023/06/20 09:19:35;;;;;;;;;;;;;;;;;;5002709;28;19929;-91
2023/06/20 09:22:02;;;;;;;;;;;;;;;;;;4995628;28;19940;-87
2023/06/20 09:24:30;;;;;;;;;;;;;;;;;;4997709;28;19933;-91
2023/06/20 09:26:58;;;;;;;;;;;;;;;;;;5016866;28;19930;-90
2023/06/20 09:29:25;;;;;;;;;;;;;;;;;;4972673;28;19933;-87
2023/06/20 09:31:53;;;;;;;;;;;;;;;;;;4998507;28;19940;-88
2023/06/20 09:34:21;;;;;;;;;;;;;;;;;;4995123;28;19940;-88
2023/06/20 09:36:49;;;;;;;;;;;;;;;;;;4993971;28;20588;-91
2023/06/20 09:39:21;;;;;;;;;;;;;;;;;;4997905;28;19929;-91
2023/06/20 09:41:49;;;;;;;;;;;;;;;;;;5022513;28;19934;-90
2023/06/20 09:44:17;;;;;;;;;;;;;;;;;;5012933;28;19953;-90
2023/06/20 09:46:44;;;;;;;;;;;;;;;;;;5006692;28;19933;-91
2023/06/20 09:49:12;;;;;;;;;;;;;;;;;;5006329;28;19938;-89
2023/06/20 09:51:40;;;;;;;;;;;;;;;;;;4989103;28;20301;-90
2023/06/20 09:54:07;;;;;;;;;;;;;;;;;;4992886;28;19940;-89
2023/06/20 09:56:35;;;;;;;;;;;;;;;;;;4988184;28;20036;-91
2023/06/20 09:59:02;;;;;;;;;;;;;;;;;;4993375;28;19944;-89
2023/06/20 10:01:30;;;;;;;;;;;;;;;;;;5001355;28;19940;-88
2023/06/20 10:03:58;;;;;;;;;;;;;;;;;;4993174;28;19936;-90
2023/06/20 10:06:25;;;;;;;;;;;;;;;;;;4995729;28;19933;-92
2023/06/20 10:08:53;;;;;;;;;;;;;;;;;;4999789;28;19934;-91
2023/06/20 10:11:20;;;;;;;;;;;;;;;;;;5016101;28;19941;-91
2023/06/20 10:13:48;;;;;;;;;;;;;;;;;;4996045;28;19929;-90
2023/06/20 10:16:16;;;;;;;;;;;;;;;;;;5006277;28;19933;-91
2023/06/20 10:18:44;;;;;;;;;;;;;;;;;;5004565;28;19933;-90
2023/06/20 10:21:11;;;;;;;;;;;;;;;;;;4994703;28;19933;-89
2023/06/20 10:23:39;;;;;;;;;;;;;;;;;;4992341;28;19933;-89
2023/06/20 10:26:07;;;;;;;;;;;;;;;;;;5001536;28;19929;-90
2023/06/20 10:28:35;;;;;;;;;;;;;;;;;;4984242;28;19933;-88
2023/06/20 10:31:03;;;;;;;;;;;;;;;;;;5004674;28;19941;-92
2023/06/20 10:33:30;;;;;;;;;;;;;;;;;;4998599;28;19933;-88
2023/06/20 10:35:59;;;;;;;;;;;;;;;;;;4996047;28;19940;-91
2023/06/20 10:38:26;;;;;;;;;;;;;;;;;;5013360;28;19941;-92
2023/06/20 10:40:54;;;;;;;;;;;;;;;;;;4997547;28;20417;-91
2023/06/20 10:43:21;;;;;;;;;;;;;;;;;;5023745;28;19933;-91
2023/06/20 10:45:49;;;;;;;;;;;;;;;;;;5020456;28;19933;-90
2023/06/20 10:48:17;;;;;;;;;;;;;;;;;;5001900;28;19933;-89
2023/06/20 10:50:44;;;;;;;;;;;;;;;;;;5027608;28;20301;-89
2023/06/20 10:53:12;;;;;;;;;;;;;;;;;;5001441;28;20830;-89
2023/06/20 10:55:40;;;;;;;;;;;;;;;;;;5005528;28;19934;-89
2023/06/20 10:58:07;;;;;;;;;;;;;;;;;;4998263;28;19940;-88
2023/06/20 11:03:18;;;;;;;;;;;;;;;;;;5019912;28;21696;-90
2023/06/20 11:05:45;;;;;;;;;;;;;;;;;;4999799;28;19944;-85
2023/06/20 11:08:13;;;;;;;;;;;;;;;;;;5019700;28;19941;-90
2023/06/20 11:10:41;;;;;;;;;;;;;;;;;;5009227;28;19940;-89
2023/06/20 11:13:09;;;;;;;;;;;;;;;;;;5007481;28;20423;-90
2023/06/20 11:15:37;;;;;;;;;;;;;;;;;;5011778;28;19940;-90
2023/06/20 11:18:04;;;;;;;;;;;;;;;;;;4997805;28;19940;-90
2023/06/20 11:20:35;;;;;;;;;;;;;;;;;;4999235;28;19940;-90
2023/06/20 11:23:02;;;;;;;;;;;;;;;;;;4999486;28;19933;-89
2023/06/20 11:25:30;;;;;;;;;;;;;;;;;;4998208;28;19937;-89
2023/06/20 11:27:58;;;;;;;;;;;;;;;;;;4977318;28;19933;-91
2023/06/20 11:30:25;;;;;;;;;;;;;;;;;;4999195;28;19933;-87
2023/06/20 11:32:53;;;;;;;;;;;;;;;;;;5002157;28;19933;-90
2023/06/20 11:35:21;;;;;;;;;;;;;;;;;;5005443;28;20717;-92
2023/06/20 11:37:48;;;;;;;;;;;;;;;;;;5000003;28;19933;-92
2023/06/20 11:40:18;;;;;;;;;;;;;;;;;;5012587;28;19936;-89
2023/06/20 11:42:47;;;;;;;;;;;;;;;;;;5005454;28;19929;-91
2023/06/20 11:45:15;;;;;;;;;;;;;;;;;;5017119;28;19944;-92
2023/06/20 11:47:43;;;;;;;;;;;;;;;;;;5023070;28;19933;-90
2023/06/20 11:50:10;;;;;;;;;;;;;;;;;;5002278;28;19929;-90
2023/06/20 11:52:42;;;;;;;;;;;;;;;;;;5007940;28;19929;-93
2023/06/20 11:55:10;;;;;;;;;;;;;;;;;;5001737;28;19934;-89
2023/06/20 11:57:38;;;;;;;;;;;;;;;;;;5014087;28;19944;-90
2023/06/20 12:00:14;;;;;;;;;;;;;;;;;;5019387;28;19944;-89
2023/06/20 12:02:42;;;;;;;;;;;;;;;;;;5005821;28;19933;-89
2023/06/20 12:05:09;;;;;;;;;;;;;;;;;;5017190;28;19933;-90
2023/06/20 12:07:37;;;;;;;;;;;;;;;;;;4997471;28;19933;-88
2023/06/20 12:10:05;;;;;;;;;;;;;;;;;;5003897;28;19940;-91
2023/06/20 12:12:33;;;;;;;;;;;;;;;;;;4997041;28;19934;-91
2023/06/20 12:15:00;;;;;;;;;;;;;;;;;;4998306;28;19955;-93
2023/06/20 12:17:28;;;;;;;;;;;;;;;;;;4997297;28;19933;-90
2023/06/20 12:19:56;;;;;;;;;;;;;;;;;;5001738;28;20297;-89
2023/06/20 12:22:25;;;;;;;;;;;;;;;;;;5000993;28;19936;-86
2023/06/20 12:24:52;;;;;;;;;;;;;;;;;;5004526;28;19940;-88
2023/06/20 12:27:20;;;;;;;;;;;;;;;;;;4999556;28;19932;-89
2023/06/20 12:29:49;;;;;;;;;;;;;;;;;;4975376;28;19933;-89
2023/06/20 12:32:16;;;;;;;;;;;;;;;;;;5007819;28;19932;-87
2023/06/20 12:34:44;;;;;;;;;;;;;;;;;;4996921;28;19933;-88
2023/06/20 12:37:11;;;;;;;;;;;;;;;;;;4997921;28;19940;-88
2023/06/20 12:39:39;;;;;;;;;;;;;;;;;;5023507;28;20438;-88
2023/06/20 12:42:07;;;;;;;;;;;;;;;;;;5002171;28;19933;-90
2023/06/20 12:44:34;;;;;;;;;;;;;;;;;;4999285;28;19942;-90
2023/06/20 12:47:02;;;;;;;;;;;;;;;;;;5003179;28;20679;-90
2023/06/20 12:49:29;;;;;;;;;;;;;;;;;;5020814;28;20335;-89
2023/06/20 12:51:59;;;;;;;;;;;;;;;;;;5014024;28;19944;-90
2023/06/20 12:54:27;;;;;;;;;;;;;;;;;;4999829;28;19933;-88
2023/06/20 12:56:54;;;;;;;;;;;;;;;;;;5008461;28;20973;-89
2023/06/20 12:59:22;;;;;;;;;;;;;;;;;;4989622;28;19933;-89
2023/06/20 13:01:50;;;;;;;;;;;;;;;;;;5018463;28;19936;-92
2023/06/20 13:04:18;;;;;;;;;;;;;;;;;;4991341;28;19934;-89
2023/06/20 13:06:45;;;;;;;;;;;;;;;;;;4994606;28;19944;-89
2023/06/20 13:09:13;;;;;;;;;;;;;;;;;;5011840;28;19932;-88
2023/06/20 13:11:43;;;;;;;;;;;;;;;;;;5011091;28;19933;-90
2023/06/20 13:14:10;;;;;;;;;;;;;;;;;;4990064;28;19933;-88
2023/06/20 13:16:38;;;;;;;;;;;;;;;;;;4995377;28;20422;-89
2023/06/20 13:19:08;;;;;;;;;;;;;;;;;;4997252;28;19940;-88
2023/06/20 13:21:36;;;;;;;;;;;;;;;;;;5022879;28;19933;-90
2023/06/20 13:24:04;;;;;;;;;;;;;;;;;;5002223;28;19934;-90
2023/06/20 13:26:31;;;;;;;;;;;;;;;;;;5013899;28;19940;-89
2023/06/20 13:29:00;;;;;;;;;;;;;;;;;;4992271;28;19940;-91
2023/06/20 13:31:28;;;;;;;;;;;;;;;;;;5007277;28;19933;-91
2023/06/20 13:33:55;;;;;;;;;;;;;;;;;;4994228;28;19933;-88
2023/06/20 13:36:23;;;;;;;;;;;;;;;;;;5001022;28;19933;-88
2023/06/20 13:38:50;;;;;;;;;;;;;;;;;;4997462;28;19933;-89
2023/06/20 13:41:18;;;;;;;;;;;;;;;;;;5001103;28;19933;-88
2023/06/20 13:43:46;;;;;;;;;;;;;;;;;;5001976;28;19940;-88
2023/06/20 13:46:14;;;;;;;;;;;;;;;;;;5021374;28;20792;-90
2023/06/20 13:48:42;;;;;;;;;;;;;;;;;;4996433;28;20668;-90
2023/06/20 13:51:09;;;;;;;;;;;;;;;;;;4995902;28;20664;-87
2023/06/20 13:53:37;;;;;;;;;;;;;;;;;;5011233;28;19944;-89
2023/06/20 13:56:04;;;;;;;;;;;;;;;;;;5017986;28;19957;-88
2023/06/20 13:58:32;;;;;;;;;;;;;;;;;;4995469;28;19940;-88
2023/06/20 14:00:59;;;;;;;;;;;;;;;;;;4987284;28;20380;-87
2023/06/20 14:03:27;;;;;;;;;;;;;;;;;;5006232;28;20587;-88
2023/06/20 14:05:56;;;;;;;;;;;;;;;;;;4994732;28;19929;-90
2023/06/20 14:08:23;;;;;;;;;;;;;;;;;;4991533;28;20654;-89
2023/06/20 14:10:51;;;;;;;;;;;;;;;;;;5018356;28;19933;-91
2023/06/20 14:13:19;;;;;;;;;;;;;;;;;;5010711;28;19934;-93
2023/06/20 14:15:46;;;;;;;;;;;;;;;;;;5027180;28;19933;-88
2023/06/20 14:18:14;;;;;;;;;;;;;;;;;;4998631;28;19940;-88
2023/06/20 14:20:41;;;;;;;;;;;;;;;;;;5001448;28;20492;-89
2023/06/20 14:23:09;;;;;;;;;;;;;;;;;;4997790;28;20316;-88
2023/06/20 14:25:36;;;;;;;;;;;;;;;;;;4998869;28;20478;-88
2023/06/20 14:28:04;;;;;;;;;;;;;;;;;;4976254;28;20354;-90
2023/06/20 14:30:32;;;;;;;;;;;;;;;;;;5008614;28;19933;-88
2023/06/20 14:33:04;;;;;;;;;;;;;;;;;;4997086;28;19940;-90
2023/06/20 14:35:32;;;;;;;;;;;;;;;;;;5001120;28;20355;-90
2023/06/20 14:37:59;;;;;;;;;;;;;;;;;;5024414;28;19936;-88
2023/06/20 14:40:27;;;;;;;;;;;;;;;;;;5000817;28;19934;-89
2023/06/20 14:42:55;;;;;;;;;;;;;;;;;;5028420;28;19949;-84
2023/06/20 14:45:28;;;;;;;;;;;;;;;;;;5021913;28;19929;-87
2023/06/20 14:47:57;;;;;;;;;;;;;;;;;;5032866;28;20712;-91
2023/06/20 14:50:26;;;;;;;;;;;;;;;;;;5037147;28;19932;-90
2023/06/20 14:52:54;;;;;;;;;;;;;;;;;;5038051;28;20284;-94
2023/06/20 14:55:21;;;;;;;;;;;;;;;;;;5035984;28;19932;-92
2023/06/20 14:57:49;;;;;;;;;;;;;;;;;;5039484;28;20376;-92
2023/06/20 15:00:17;;;;;;;;;;;;;;;;;;5058703;28;19940;-93
2023/06/20 15:02:45;;;;;;;;;;;;;;;;;;5046786;28;19932;-89
2023/06/20 15:05:17;;;;;;;;;;;;;;;;;;5038581;28;19936;-89
2023/06/20 15:07:45;;;;;;;;;;;;;;;;;;5035957;28;20376;-93
2023/06/20 15:10:12;;;;;;;;;;;;;;;;;;5052939;28;19928;-91
2023/06/20 15:12:42;;;;;;;;;;;;;;;;;;5039451;28;19929;-89
2023/06/20 15:15:10;;;;;;;;;;;;;;;;;;5040996;28;20407;-90
2023/06/20 15:17:38;;;;;;;;;;;;;;;;;;5034812;28;19929;-90
2023/06/20 15:20:05;;;;;;;;;;;;;;;;;;5038615;28;19929;-91
2023/06/20 15:22:33;;;;;;;;;;;;;;;;;;5050977;28;19948;-92
2023/06/20 15:25:01;;;;;;;;;;;;;;;;;;5039666;28;19928;-90
2023/06/20 15:27:29;;;;;;;;;;;;;;;;;;5040047;28;19928;-88
2023/06/20 15:29:56;;;;;;;;;;;;;;;;;;5036215;28;19929;-89
2023/06/20 15:32:24;;;;;;;;;;;;;;;;;;5053792;28;20301;-89
2023/06/20 15:34:51;;;;;;;;;;;;;;;;;;5046278;28;19929;-86
2023/06/20 15:37:19;;;;;;;;;;;;;;;;;;5037660;28;20469;-85
2023/06/20 15:39:47;;;;;;;;;;;;;;;;;;5041251;28;19936;-82
2023/06/20 15:42:14;;;;;;;;;;;;;;;;;;5035488;28;19929;-85
2023/06/20 15:44:42;;;;;;;;;;;;;;;;;;5040750;28;19925;-86
2023/06/20 15:47:14;;;;;;;;;;;;;;;;;;5029321;28;20399;-86
2023/06/20 15:49:47;;;;;;;;;;;;;;;;;;5036676;28;19933;-83
2023/06/20 15:52:15;;;;;;;;;;;;;;;;;;5034447;28;19929;-86
2023/06/20 15:54:42;;;;;;;;;;;;;;;;;;5036735;28;19929;-85
2023/06/20 15:57:10;;;;;;;;;;;;;;;;;;5036629;28;19925;-85
2023/06/20 15:59:42;;;;;;;;;;;;;;;;;;5043296;28;19931;-84
2023/06/20 16:02:10;;;;;;;;;;;;;;;;;;5049120;28;19925;-83
2023/06/20 16:04:37;;;;;;;;;;;;;;;;;;5039197;28;20299;-84
2023/06/20 16:07:10;;;;;;;;;;;;;;;;;;5021834;28;19929;-87
2023/06/20 16:09:38;;;;;;;;;;;;;;;;;;5001890;28;19933;-86
2023/06/20 16:12:05;;;;;;;;;;;;;;;;;;5002549;28;19944;-86
2023/06/20 16:14:33;;;;;;;;;;;;;;;;;;4995075;28;19933;-89
2023/06/20 16:17:01;;;;;;;;;;;;;;;;;;5023048;28;20492;-86
2023/06/20 16:19:28;;;;;;;;;;;;;;;;;;4998078;28;19941;-85
2023/06/20 16:21:56;;;;;;;;;;;;;;;;;;5021761;28;20417;-82
2023/06/20 16:24:23;;;;;;;;;;;;;;;;;;4995247;28;19925;-82
2023/06/20 16:26:51;;;;;;;;;;;;;;;;;;5004101;28;19932;-86
2023/06/20 16:29:18;;;;;;;;;;;;;;;;;;5005339;28;19933;-88
2023/06/20 16:42:23;;;;;;;;;;;;;;;;;;4971081;28;19945;-86
2023/06/20 16:48:45;;;;;;;;;;;;;;;;;;4916706;28;21484;-85
2023/06/20 16:51:25;;;;;;;;;;;;;;;;;;4917531;28;20591;-84
2023/06/20 17:01:08;;;;;;;;;;;;;;;;;;4968860;28;19937;-84
2023/06/20 17:06:54;;;;;;;;;;;;;;;;;;5002210;28;20526;-88
2023/06/20 17:20:09;;;;;;;;;;;;;;;;;;4885427;29;19934;-86
2023/06/20 17:25:52;;;;;;;;;;;;;;;;;;4792038;29;19944;-84
2023/06/20 17:28:34;;;;;;;;;;;;;;;;;;4796200;29;20388;-83
2023/06/20 17:31:03;;;;;;;;;;;;;;;;;;4842404;29;20352;-86
2023/06/20 17:33:56;;;;;;;;;;;;;;;;;;4863897;29;19936;-85